sensor_id;sensor_type;location;lat;lon;timestamp;P1;P4;P2;P0;N10;N4;N25;N1;N05;TS
13413;SPS30;6778;48.136;11.386;2022-09-17T00:01:41;7.23;7.22;7.21;6.80;54.26;54.25;54.24;54.12;47.03;0.47
13413;SPS30;6778;48.136;11.386;2022-09-17T00:04:09;4.57;4.57;4.57;4.32;34.48;34.47;34.46;34.40;29.91;0.46
13413;SPS30;6778;48.136;11.386;2022-09-17T00:06:38;4.25;4.25;4.25;4.02;32.12;32.11;32.11;32.05;27.87;0.45
13413;SPS30;6778;48.136;11.386;2022-09-17T00:09:07;3.89;3.89;3.89;3.67;29.33;29.33;29.32;29.27;25.45;0.43
13413;SPS30;6778;48.136;11.386;2022-09-17T00:11:39;3.45;3.45;3.45;3.27;26.07;26.07;26.06;26.01;22.62;0.42
13413;SPS30;6778;48.136;11.386;2022-09-17T00:14:12;3.49;3.49;3.49;3.30;26.35;26.34;26.34;26.29;22.86;0.41
13413;SPS30;6778;48.136;11.386;2022-09-17T00:16:43;3.81;3.81;3.81;3.60;28.76;28.76;28.75;28.70;24.95;0.41
13413;SPS30;6778;48.136;11.386;2022-09-17T00:19:15;3.41;3.41;3.41;3.22;25.74;25.73;25.73;25.68;22.33;0.41
13413;SPS30;6778;48.136;11.386;2022-09-17T00:21:45;3.32;3.32;3.32;3.14;25.07;25.07;25.06;25.02;21.75;0.41
13413;SPS30;6778;48.136;11.386;2022-09-17T00:24:15;3.56;3.56;3.56;3.36;26.84;26.84;26.83;26.78;23.29;0.41
13413;SPS30;6778;48.136;11.386;2022-09-17T00:26:49;3.35;3.35;3.35;3.17;25.28;25.27;25.27;25.22;21.93;0.41
13413;SPS30;6778;48.136;11.386;2022-09-17T00:29:18;3.65;3.65;3.65;3.46;27.59;27.59;27.58;27.53;23.94;0.41
13413;SPS30;6778;48.136;11.386;2022-09-17T00:31:46;3.33;3.33;3.33;3.15;25.16;25.15;25.15;25.10;21.83;0.42
13413;SPS30;6778;48.136;11.386;2022-09-17T00:34:15;3.26;3.26;3.26;3.09;24.65;24.64;24.64;24.59;21.38;0.43
13413;SPS30;6778;48.136;11.386;2022-09-17T00:36:43;2.93;2.93;2.93;2.77;22.10;22.10;22.09;22.05;19.17;0.44
13413;SPS30;6778;48.136;11.386;2022-09-17T00:39:12;2.93;2.93;2.93;2.77;22.13;22.13;22.13;22.08;19.20;0.44
13413;SPS30;6778;48.136;11.386;2022-09-17T00:41:41;2.90;2.90;2.90;2.75;21.92;21.92;21.91;21.87;19.02;0.43
13413;SPS30;6778;48.136;11.386;2022-09-17T00:47:27;2.62;2.62;2.62;2.47;19.74;19.74;19.74;19.70;17.13;0.42
13413;SPS30;6778;48.136;11.386;2022-09-17T00:49:58;2.53;2.53;2.53;2.39;19.08;19.08;19.07;19.04;16.55;0.42
13413;SPS30;6778;48.136;11.386;2022-09-17T00:52:30;2.86;2.86;2.86;2.70;21.56;21.56;21.55;21.51;18.71;0.44
13413;SPS30;6778;48.136;11.386;2022-09-17T00:55:03;4.52;4.52;4.52;4.27;34.12;34.11;34.11;34.04;29.60;0.45
13413;SPS30;6778;48.136;11.386;2022-09-17T00:57:37;2.85;2.85;2.85;2.69;21.48;21.48;21.47;21.43;18.64;0.44
13413;SPS30;6778;48.136;11.386;2022-09-17T01:00:06;2.63;2.63;2.63;2.48;19.84;19.83;19.83;19.79;17.21;0.43
13413;SPS30;6778;48.136;11.386;2022-09-17T01:02:39;2.24;2.24;2.24;2.12;16.91;16.91;16.90;16.87;14.67;0.41
13413;SPS30;6778;48.136;11.386;2022-09-17T01:05:10;2.18;2.18;2.18;2.06;16.43;16.43;16.43;16.40;14.26;0.41
13413;SPS30;6778;48.136;11.386;2022-09-17T01:07:44;2.07;2.07;2.07;1.96;15.66;15.66;15.65;15.62;13.58;0.41
13413;SPS30;6778;48.136;11.386;2022-09-17T01:10:25;2.08;2.08;2.08;1.97;15.72;15.72;15.72;15.69;13.64;0.40
13413;SPS30;6778;48.136;11.386;2022-09-17T01:13:06;2.20;2.20;2.20;2.08;16.63;16.63;16.62;16.59;14.43;0.40
13413;SPS30;6778;48.136;11.386;2022-09-17T01:15:45;2.11;2.11;2.11;1.99;15.90;15.90;15.90;15.87;13.80;0.41
13413;SPS30;6778;48.136;11.386;2022-09-17T01:18:26;2.31;2.31;2.31;2.18;17.42;17.41;17.41;17.38;15.11;0.40
13413;SPS30;6778;48.136;11.386;2022-09-17T01:21:14;2.52;2.52;2.52;2.39;19.05;19.05;19.04;19.01;16.53;0.40
13413;SPS30;6778;48.136;11.386;2022-09-17T01:27:14;2.28;2.28;2.28;2.16;17.21;17.21;17.20;17.17;14.93;0.40
13413;SPS30;6778;48.136;11.386;2022-09-17T01:30:13;2.34;2.34;2.34;2.22;17.68;17.68;17.68;17.64;15.34;0.41
13413;SPS30;6778;48.136;11.386;2022-09-17T01:32:48;2.05;2.05;2.05;1.94;15.51;15.51;15.51;15.48;13.46;0.41
13413;SPS30;6778;48.136;11.386;2022-09-17T01:35:24;2.11;2.11;2.11;2.00;15.95;15.95;15.94;15.91;13.84;0.42
13413;SPS30;6778;48.136;11.386;2022-09-17T01:38:00;2.30;2.30;2.30;2.18;17.40;17.40;17.39;17.36;15.10;0.44
13413;SPS30;6778;48.136;11.386;2022-09-17T01:40:37;1.58;1.58;1.58;1.49;11.90;11.90;11.90;11.88;10.33;0.42
13413;SPS30;6778;48.136;11.386;2022-09-17T01:43:14;1.83;1.83;1.83;1.73;13.85;13.84;13.84;13.82;12.01;0.42
13413;SPS30;6778;48.136;11.386;2022-09-17T01:45:49;1.86;1.86;1.86;1.76;14.06;14.06;14.05;14.03;12.20;0.42
13413;SPS30;6778;48.136;11.386;2022-09-17T01:48:22;1.66;1.66;1.66;1.57;12.50;12.50;12.49;12.47;10.84;0.41
13413;SPS30;6778;48.136;11.386;2022-09-17T01:50:55;1.78;1.78;1.78;1.68;13.44;13.44;13.44;13.41;11.66;0.42
13413;SPS30;6778;48.136;11.386;2022-09-17T01:53:28;1.74;1.74;1.74;1.65;13.13;13.13;13.13;13.11;11.40;0.41
13413;SPS30;6778;48.136;11.386;2022-09-17T01:56:02;1.81;1.81;1.81;1.71;13.66;13.66;13.66;13.63;11.86;0.41
13413;SPS30;6778;48.136;11.386;2022-09-17T01:58:36;1.76;1.76;1.76;1.66;13.28;13.28;13.28;13.25;11.53;0.41
13413;SPS30;6778;48.136;11.386;2022-09-17T02:01:10;1.82;1.82;1.82;1.72;13.71;13.71;13.71;13.68;11.90;0.41
13413;SPS30;6778;48.136;11.386;2022-09-17T02:03:47;1.94;1.94;1.94;1.84;14.67;14.66;14.66;14.63;12.72;0.41
13413;SPS30;6778;48.136;11.386;2022-09-17T02:06:21;2.04;2.04;2.04;1.93;15.37;15.37;15.37;15.34;13.34;0.43
13413;SPS30;6778;48.136;11.386;2022-09-17T02:08:55;5.65;5.65;5.64;5.33;42.54;42.54;42.53;42.44;36.89;0.45
13413;SPS30;6778;48.136;11.386;2022-09-17T02:11:28;5.24;5.20;5.13;4.77;38.12;38.11;38.09;37.94;32.86;0.51
13413;SPS30;6778;48.136;11.386;2022-09-17T02:14:02;2.56;2.55;2.53;2.38;18.98;18.98;18.97;18.92;16.42;0.47
13413;SPS30;6778;48.136;11.386;2022-09-17T02:16:35;2.28;2.28;2.28;2.16;17.22;17.21;17.21;17.18;14.94;0.45
13413;SPS30;6778;48.136;11.386;2022-09-17T02:19:09;2.06;2.06;2.06;1.94;15.52;15.52;15.52;15.49;13.47;0.44
13413;SPS30;6778;48.136;11.386;2022-09-17T02:21:44;2.35;2.35;2.35;2.22;17.76;17.76;17.76;17.72;15.41;0.44
13413;SPS30;6778;48.136;11.386;2022-09-17T02:24:17;2.29;2.29;2.29;2.17;17.30;17.30;17.29;17.26;15.01;0.43
13413;SPS30;6778;48.136;11.386;2022-09-17T02:26:54;6.01;6.01;6.01;5.68;45.39;45.38;45.37;45.29;39.38;0.44
13413;SPS30;6778;48.136;11.386;2022-09-17T02:29:28;5.06;5.06;5.05;4.77;38.05;38.05;38.04;37.96;32.99;0.47
13413;SPS30;6778;48.136;11.386;2022-09-17T02:32:00;3.25;3.24;3.23;3.04;24.27;24.27;24.26;24.20;21.02;0.47
13413;SPS30;6778;48.136;11.386;2022-09-17T02:34:32;2.41;2.41;2.41;2.28;18.23;18.22;18.22;18.19;15.81;0.44
13413;SPS30;6778;48.136;11.386;2022-09-17T02:37:01;2.11;2.11;2.11;1.99;15.92;15.92;15.92;15.89;13.82;0.43
13413;SPS30;6778;48.136;11.386;2022-09-17T02:39:30;2.31;2.31;2.31;2.19;17.46;17.46;17.46;17.42;15.15;0.42
13413;SPS30;6778;48.136;11.386;2022-09-17T02:42:02;2.18;2.18;2.18;2.06;16.47;16.47;16.47;16.44;14.29;0.42
13413;SPS30;6778;48.136;11.386;2022-09-17T02:44:41;2.06;2.06;2.06;1.95;15.56;15.55;15.55;15.52;13.50;0.41
13413;SPS30;6778;48.136;11.386;2022-09-17T02:47:23;2.25;2.25;2.25;2.13;16.98;16.97;16.97;16.94;14.73;0.40
13413;SPS30;6778;48.136;11.386;2022-09-17T02:50:13;2.21;2.21;2.21;2.09;16.66;16.66;16.66;16.63;14.46;0.41
13413;SPS30;6778;48.136;11.386;2022-09-17T02:52:57;2.09;2.09;2.09;1.98;15.80;15.80;15.79;15.77;13.71;0.40
13413;SPS30;6778;48.136;11.386;2022-09-17T02:55:35;2.23;2.23;2.23;2.11;16.82;16.82;16.82;16.79;14.60;0.40
13413;SPS30;6778;48.136;11.386;2022-09-17T02:58:11;2.11;2.11;2.11;2.00;15.96;15.96;15.96;15.93;13.85;0.41
13413;SPS30;6778;48.136;11.386;2022-09-17T03:00:47;5.51;5.51;5.51;5.21;41.58;41.58;41.57;41.49;36.08;0.43
13413;SPS30;6778;48.136;11.386;2022-09-17T03:03:16;3.50;3.50;3.50;3.31;26.45;26.45;26.44;26.39;22.95;0.45
13413;SPS30;6778;48.136;11.386;2022-09-17T03:05:51;2.27;2.27;2.27;2.15;17.14;17.13;17.13;17.10;14.87;0.45
13413;SPS30;6778;48.136;11.386;2022-09-17T03:08:26;2.07;2.07;2.07;1.96;15.63;15.63;15.62;15.59;13.56;0.43
13413;SPS30;6778;48.136;11.386;2022-09-17T03:10:56;1.86;1.86;1.86;1.76;14.05;14.05;14.05;14.02;12.19;0.42
13413;SPS30;6778;48.136;11.386;2022-09-17T03:13:24;1.90;1.90;1.90;1.80;14.33;14.33;14.33;14.30;12.44;0.42
13413;SPS30;6778;48.136;11.386;2022-09-17T03:15:53;2.09;2.09;2.09;1.97;15.76;15.75;15.75;15.72;13.67;0.41
13413;SPS30;6778;48.136;11.386;2022-09-17T03:18:23;1.95;1.95;1.95;1.84;14.70;14.70;14.69;14.67;12.75;0.40
13413;SPS30;6778;48.136;11.386;2022-09-17T03:20:54;2.06;2.06;2.06;1.94;15.52;15.52;15.51;15.49;13.46;0.40
13413;SPS30;6778;48.136;11.386;2022-09-17T03:23:23;2.04;2.04;2.04;1.93;15.39;15.39;15.38;15.35;13.35;0.40
13413;SPS30;6778;48.136;11.386;2022-09-17T03:25:52;4.44;4.44;4.44;4.20;33.54;33.54;33.53;33.47;29.10;0.43
13413;SPS30;6778;48.136;11.386;2022-09-17T03:28:20;3.37;3.37;3.37;3.19;25.47;25.47;25.46;25.41;22.10;0.44
13413;SPS30;6778;48.136;11.386;2022-09-17T03:30:50;2.33;2.33;2.33;2.21;17.63;17.62;17.62;17.59;15.29;0.43
13413;SPS30;6778;48.136;11.386;2022-09-17T03:33:19;2.19;2.19;2.19;2.08;16.57;16.57;16.56;16.53;14.38;0.43
13413;SPS30;6778;48.136;11.386;2022-09-17T03:35:47;2.26;2.26;2.26;2.13;17.03;17.03;17.02;16.99;14.78;0.42
13413;SPS30;6778;48.136;11.386;2022-09-17T03:38:18;2.20;2.20;2.20;2.08;16.60;16.60;16.59;16.56;14.40;0.41
13413;SPS30;6778;48.136;11.386;2022-09-17T03:40:55;1.93;1.93;1.93;1.82;14.53;14.53;14.53;14.50;12.61;0.40
13413;SPS30;6778;48.136;11.386;2022-09-17T03:43:24;1.81;1.81;1.81;1.71;13.64;13.64;13.63;13.61;11.83;0.40
13413;SPS30;6778;48.136;11.386;2022-09-17T03:45:52;2.13;2.13;2.13;2.01;16.08;16.08;16.08;16.05;13.95;0.41
13413;SPS30;6778;48.136;11.386;2022-09-17T03:48:22;1.84;1.84;1.84;1.74;13.93;13.92;13.92;13.90;12.08;0.42
13413;SPS30;6778;48.136;11.386;2022-09-17T03:50:51;1.92;1.92;1.92;1.81;14.49;14.49;14.48;14.46;12.57;0.42
13413;SPS30;6778;48.136;11.386;2022-09-17T03:53:22;1.82;1.82;1.82;1.72;13.75;13.75;13.75;13.72;11.93;0.42
13413;SPS30;6778;48.136;11.386;2022-09-17T03:55:51;2.00;2.00;2.00;1.89;15.07;15.06;15.06;15.03;13.07;0.43
13413;SPS30;6778;48.136;11.386;2022-09-17T03:58:19;1.87;1.87;1.87;1.77;14.12;14.12;14.12;14.09;12.25;0.42
13413;SPS30;6778;48.136;11.386;2022-09-17T04:00:51;1.78;1.78;1.78;1.69;13.46;13.46;13.46;13.43;11.68;0.41
13413;SPS30;6778;48.136;11.386;2022-09-17T04:03:21;1.99;1.99;1.99;1.88;15.01;15.00;15.00;14.97;13.02;0.41
13413;SPS30;6778;48.136;11.386;2022-09-17T04:05:51;2.11;2.11;2.11;1.99;15.90;15.90;15.90;15.87;13.80;0.41
13413;SPS30;6778;48.136;11.386;2022-09-17T04:08:25;1.91;1.91;1.91;1.81;14.44;14.44;14.44;14.41;12.53;0.40
13413;SPS30;6778;48.136;11.386;2022-09-17T04:10:54;1.86;1.86;1.86;1.76;14.03;14.03;14.03;14.00;12.17;0.40
13413;SPS30;6778;48.136;11.386;2022-09-17T04:13:23;2.02;2.02;2.02;1.91;15.24;15.23;15.23;15.20;13.22;0.41
13413;SPS30;6778;48.136;11.386;2022-09-17T04:15:51;2.08;2.08;2.08;1.97;15.73;15.73;15.72;15.70;13.65;0.41
13413;SPS30;6778;48.136;11.386;2022-09-17T04:18:19;2.04;2.04;2.04;1.93;15.43;15.43;15.43;15.40;13.39;0.40
13413;SPS30;6778;48.136;11.386;2022-09-17T04:20:48;2.31;2.31;2.31;2.19;17.45;17.44;17.44;17.41;15.14;0.41
13413;SPS30;6778;48.136;11.386;2022-09-17T04:23:17;2.72;2.72;2.72;2.57;20.51;20.51;20.50;20.46;17.79;0.41
13413;SPS30;6778;48.136;11.386;2022-09-17T04:25:48;2.39;2.39;2.39;2.26;18.07;18.06;18.06;18.03;15.67;0.41
13413;SPS30;6778;48.136;11.386;2022-09-17T04:28:16;2.68;2.68;2.68;2.54;20.25;20.25;20.24;20.20;17.57;0.41
13413;SPS30;6778;48.136;11.386;2022-09-17T04:30:46;2.44;2.44;2.44;2.31;18.41;18.40;18.40;18.37;15.97;0.41
13413;SPS30;6778;48.136;11.386;2022-09-17T04:33:14;2.13;2.13;2.13;2.01;16.05;16.05;16.05;16.02;13.93;0.42
13413;SPS30;6778;48.136;11.386;2022-09-17T04:35:43;1.97;1.97;1.97;1.86;14.86;14.86;14.85;14.82;12.89;0.42
13413;SPS30;6778;48.136;11.386;2022-09-17T04:38:12;1.93;1.93;1.93;1.83;14.57;14.57;14.57;14.54;12.64;0.42
13413;SPS30;6778;48.136;11.386;2022-09-17T04:40:43;1.87;1.87;1.87;1.76;14.09;14.08;14.08;14.06;12.22;0.41
13413;SPS30;6778;48.136;11.386;2022-09-17T04:43:14;1.78;1.78;1.78;1.69;13.46;13.46;13.46;13.43;11.68;0.41
13413;SPS30;6778;48.136;11.386;2022-09-17T04:45:44;1.78;1.78;1.78;1.69;13.48;13.47;13.47;13.45;11.69;0.42
13413;SPS30;6778;48.136;11.386;2022-09-17T04:48:13;1.96;1.96;1.96;1.85;14.77;14.77;14.77;14.74;12.82;0.42
13413;SPS30;6778;48.136;11.386;2022-09-17T04:50:42;1.99;1.99;1.99;1.88;15.01;15.01;15.00;14.97;13.02;0.41
13413;SPS30;6778;48.136;11.386;2022-09-17T04:53:10;1.87;1.87;1.87;1.77;14.13;14.12;14.12;14.09;12.25;0.41
13413;SPS30;6778;48.136;11.386;2022-09-17T04:55:39;1.87;1.87;1.87;1.77;14.10;14.10;14.10;14.07;12.24;0.41
13413;SPS30;6778;48.136;11.386;2022-09-17T04:58:07;1.86;1.86;1.86;1.76;14.02;14.02;14.02;13.99;12.17;0.42
13413;SPS30;6778;48.136;11.386;2022-09-17T05:00:39;1.70;1.70;1.70;1.61;12.82;12.82;12.81;12.79;11.12;0.42
13413;SPS30;6778;48.136;11.386;2022-09-17T05:03:07;1.80;1.80;1.80;1.70;13.58;13.58;13.58;13.55;11.79;0.42
13413;SPS30;6778;48.136;11.386;2022-09-17T05:05:36;1.53;1.53;1.53;1.45;11.56;11.56;11.56;11.54;10.03;0.42
13413;SPS30;6778;48.136;11.386;2022-09-17T05:08:04;1.77;1.77;1.77;1.67;13.36;13.35;13.35;13.33;11.59;0.43
13413;SPS30;6778;48.136;11.386;2022-09-17T05:10:33;1.66;1.66;1.66;1.57;12.55;12.54;12.54;12.52;10.88;0.42
13413;SPS30;6778;48.136;11.386;2022-09-17T05:13:01;1.63;1.63;1.63;1.54;12.27;12.27;12.27;12.25;10.65;0.42
13413;SPS30;6778;48.136;11.386;2022-09-17T05:15:32;1.65;1.65;1.65;1.56;12.48;12.48;12.47;12.45;10.83;0.41
13413;SPS30;6778;48.136;11.386;2022-09-17T05:18:03;1.70;1.70;1.70;1.60;12.81;12.80;12.80;12.78;11.11;0.42
13413;SPS30;6778;48.136;11.386;2022-09-17T05:20:32;1.61;1.61;1.61;1.52;12.14;12.14;12.14;12.12;10.54;0.42
13413;SPS30;6778;48.136;11.386;2022-09-17T05:23:00;1.56;1.56;1.56;1.47;11.77;11.77;11.77;11.75;10.21;0.43
13413;SPS30;6778;48.136;11.386;2022-09-17T05:25:28;1.60;1.60;1.60;1.51;12.06;12.06;12.05;12.03;10.46;0.44
13413;SPS30;6778;48.136;11.386;2022-09-17T05:27:59;1.84;1.84;1.84;1.74;13.87;13.87;13.87;13.84;12.04;0.44
13413;SPS30;6778;48.136;11.386;2022-09-17T05:30:28;1.66;1.66;1.66;1.57;12.54;12.54;12.53;12.51;10.88;0.44
13413;SPS30;6778;48.136;11.386;2022-09-17T05:32:57;1.53;1.53;1.53;1.44;11.51;11.51;11.51;11.49;9.99;0.45
13413;SPS30;6778;48.136;11.386;2022-09-17T05:35:29;1.62;1.62;1.62;1.53;12.21;12.21;12.20;12.18;10.59;0.44
13413;SPS30;6778;48.136;11.386;2022-09-17T05:37:58;1.77;1.77;1.77;1.67;13.37;13.36;13.36;13.34;11.60;0.43
13413;SPS30;6778;48.136;11.386;2022-09-17T05:40:28;1.39;1.39;1.39;1.31;10.47;10.47;10.46;10.44;9.08;0.42
13413;SPS30;6778;48.136;11.386;2022-09-17T05:42:57;1.50;1.50;1.50;1.42;11.36;11.36;11.36;11.34;9.86;0.42
13413;SPS30;6778;48.136;11.386;2022-09-17T05:45:26;1.81;1.81;1.81;1.71;13.64;13.64;13.64;13.61;11.84;0.43
13413;SPS30;6778;48.136;11.386;2022-09-17T05:47:57;1.66;1.66;1.66;1.57;12.51;12.51;12.51;12.48;10.85;0.43
13413;SPS30;6778;48.136;11.386;2022-09-17T05:50:30;1.55;1.55;1.55;1.46;11.68;11.67;11.67;11.65;10.13;0.43
13413;SPS30;6778;48.136;11.386;2022-09-17T05:53:02;1.69;1.69;1.69;1.60;12.76;12.75;12.75;12.73;11.07;0.42
13413;SPS30;6778;48.136;11.386;2022-09-17T05:55:32;1.68;1.68;1.68;1.59;12.72;12.72;12.72;12.69;11.04;0.41
13413;SPS30;6778;48.136;11.386;2022-09-17T05:58:07;1.59;1.59;1.59;1.51;12.03;12.03;12.02;12.00;10.43;0.42
13413;SPS30;6778;48.136;11.386;2022-09-17T06:00:36;1.69;1.69;1.69;1.60;12.78;12.78;12.77;12.75;11.09;0.43
13413;SPS30;6778;48.136;11.386;2022-09-17T06:03:05;1.38;1.38;1.38;1.31;10.45;10.45;10.44;10.42;9.06;0.44
13413;SPS30;6778;48.136;11.386;2022-09-17T06:05:36;1.79;1.79;1.79;1.70;13.55;13.55;13.54;13.52;11.76;0.44
13413;SPS30;6778;48.136;11.386;2022-09-17T06:08:05;1.62;1.62;1.62;1.54;12.27;12.26;12.26;12.24;10.64;0.44
13413;SPS30;6778;48.136;11.386;2022-09-17T06:10:34;1.69;1.69;1.69;1.59;12.73;12.73;12.73;12.70;11.05;0.43
13413;SPS30;6778;48.136;11.386;2022-09-17T06:13:03;1.44;1.44;1.44;1.36;10.86;10.86;10.86;10.84;9.42;0.42
13413;SPS30;6778;48.136;11.386;2022-09-17T06:15:31;1.59;1.59;1.59;1.50;11.97;11.97;11.96;11.94;10.38;0.42
13413;SPS30;6778;48.136;11.386;2022-09-17T06:17:59;1.65;1.65;1.65;1.56;12.42;12.42;12.42;12.39;10.78;0.42
13413;SPS30;6778;48.136;11.386;2022-09-17T06:20:28;1.52;1.52;1.52;1.44;11.47;11.47;11.46;11.44;9.95;0.42
13413;SPS30;6778;48.136;11.386;2022-09-17T06:22:59;1.74;1.74;1.74;1.64;13.11;13.11;13.11;13.08;11.38;0.41
13413;SPS30;6778;48.136;11.386;2022-09-17T06:25:27;1.60;1.60;1.60;1.52;12.11;12.11;12.11;12.08;10.51;0.41
13413;SPS30;6778;48.136;11.386;2022-09-17T06:27:56;1.66;1.66;1.66;1.57;12.51;12.51;12.51;12.48;10.86;0.43
13413;SPS30;6778;48.136;11.386;2022-09-17T06:30:24;1.71;1.71;1.71;1.62;12.94;12.94;12.94;12.91;11.23;0.44
13413;SPS30;6778;48.136;11.386;2022-09-17T06:32:53;1.78;1.78;1.78;1.68;13.42;13.42;13.41;13.39;11.64;0.43
13413;SPS30;6778;48.136;11.386;2022-09-17T06:35:21;1.50;1.50;1.50;1.42;11.31;11.31;11.31;11.29;9.81;0.45
13413;SPS30;6778;48.136;11.386;2022-09-17T06:37:49;1.68;1.68;1.68;1.59;12.69;12.68;12.68;12.66;11.01;0.45
13413;SPS30;6778;48.136;11.386;2022-09-17T06:40:21;1.56;1.56;1.56;1.47;11.77;11.77;11.77;11.75;10.21;0.44
13413;SPS30;6778;48.136;11.386;2022-09-17T06:42:49;1.58;1.58;1.58;1.50;11.94;11.94;11.94;11.92;10.36;0.46
13413;SPS30;6778;48.136;11.386;2022-09-17T06:45:18;1.81;1.81;1.81;1.71;13.63;13.63;13.63;13.60;11.83;0.46
13413;SPS30;6778;48.136;11.386;2022-09-17T06:47:46;2.73;2.72;2.70;2.53;20.21;20.20;20.20;20.14;17.47;0.47
13413;SPS30;6778;48.136;11.386;2022-09-17T06:50:14;1.93;1.93;1.92;1.81;14.48;14.47;14.47;14.44;12.54;0.47
13413;SPS30;6778;48.136;11.386;2022-09-17T06:52:46;1.70;1.69;1.68;1.58;12.61;12.60;12.60;12.56;10.90;0.48
13413;SPS30;6778;48.136;11.386;2022-09-17T06:55:16;1.53;1.53;1.53;1.45;11.58;11.58;11.57;11.55;10.04;0.47
13413;SPS30;6778;48.136;11.386;2022-09-17T06:57:47;1.61;1.61;1.61;1.52;12.11;12.10;12.10;12.08;10.49;0.47
13413;SPS30;6778;48.136;11.386;2022-09-17T07:00:16;1.66;1.65;1.62;1.50;11.95;11.94;11.94;11.88;10.27;0.48
13413;SPS30;6778;48.136;11.386;2022-09-17T07:02:53;1.68;1.68;1.68;1.58;12.65;12.65;12.65;12.62;10.97;0.45
13413;SPS30;6778;48.136;11.386;2022-09-17T07:05:23;1.33;1.33;1.33;1.26;10.07;10.06;10.06;10.04;8.73;0.45
13413;SPS30;6778;48.136;11.386;2022-09-17T07:07:52;1.54;1.54;1.54;1.46;11.65;11.65;11.65;11.63;10.11;0.46
13413;SPS30;6778;48.136;11.386;2022-09-17T07:10:21;1.49;1.47;1.42;1.30;10.38;10.38;10.37;10.30;8.88;0.49
13413;SPS30;6778;48.136;11.386;2022-09-17T07:12:55;1.51;1.48;1.42;1.28;10.24;10.24;10.23;10.14;8.71;0.49
13413;SPS30;6778;48.136;11.386;2022-09-17T07:15:24;1.49;1.47;1.42;1.29;10.27;10.27;10.26;10.18;8.77;0.48
13413;SPS30;6778;48.136;11.386;2022-09-17T07:17:55;1.47;1.46;1.45;1.36;10.86;10.86;10.86;10.82;9.39;0.47
13413;SPS30;6778;48.136;11.386;2022-09-17T07:20:23;1.30;1.29;1.28;1.19;9.53;9.53;9.53;9.49;8.23;0.47
13413;SPS30;6778;48.136;11.386;2022-09-17T07:22:54;1.51;1.50;1.48;1.38;11.04;11.03;11.03;10.98;9.52;0.47
13413;SPS30;6778;48.136;11.386;2022-09-17T07:25:23;1.54;1.52;1.49;1.37;10.95;10.94;10.94;10.88;9.40;0.48
13413;SPS30;6778;48.136;11.386;2022-09-17T07:27:55;1.53;1.50;1.45;1.30;10.37;10.37;10.36;10.27;8.82;0.49
13413;SPS30;6778;48.136;11.386;2022-09-17T07:30:24;1.52;1.49;1.43;1.28;10.22;10.22;10.21;10.11;8.68;0.49
13413;SPS30;6778;48.136;11.386;2022-09-17T07:32:52;1.62;1.59;1.52;1.36;10.86;10.86;10.85;10.75;9.22;0.50
13413;SPS30;6778;48.136;11.386;2022-09-17T07:35:21;1.71;1.68;1.61;1.44;11.50;11.49;11.48;11.38;9.76;0.51
13413;SPS30;6778;48.136;11.386;2022-09-17T07:37:49;2.54;2.50;2.43;2.21;17.66;17.66;17.65;17.53;15.10;0.51
13413;SPS30;6778;48.136;11.386;2022-09-17T07:40:17;2.31;2.29;2.25;2.08;16.64;16.64;16.63;16.55;14.32;0.50
13413;SPS30;6778;48.136;11.386;2022-09-17T07:42:49;1.51;1.49;1.45;1.33;10.64;10.64;10.63;10.57;9.12;0.51
13413;SPS30;6778;48.136;11.386;2022-09-17T07:45:21;1.47;1.45;1.41;1.29;10.30;10.29;10.28;10.22;8.81;0.51
13413;SPS30;6778;48.136;11.386;2022-09-17T07:47:49;1.62;1.59;1.54;1.41;11.22;11.22;11.21;11.13;9.59;0.51
13413;SPS30;6778;48.136;11.386;2022-09-17T07:50:18;1.72;1.69;1.63;1.46;11.68;11.67;11.66;11.56;9.93;0.54
13413;SPS30;6778;48.136;11.386;2022-09-17T07:52:46;1.63;1.59;1.53;1.37;10.97;10.97;10.96;10.86;9.33;0.54
13413;SPS30;6778;48.136;11.386;2022-09-17T07:55:16;1.59;1.56;1.50;1.34;10.72;10.72;10.71;10.62;9.11;0.54
13413;SPS30;6778;48.136;11.386;2022-09-17T07:57:49;1.55;1.52;1.46;1.31;10.47;10.47;10.46;10.37;8.90;0.54
13413;SPS30;6778;48.136;11.386;2022-09-17T08:00:21;4.27;4.20;4.07;3.70;29.55;29.55;29.52;29.31;25.24;0.53
13413;SPS30;6778;48.136;11.386;2022-09-17T08:02:51;2.10;2.08;2.04;1.88;14.99;14.99;14.98;14.90;12.87;0.53
13413;SPS30;6778;48.136;11.386;2022-09-17T08:05:20;1.37;1.34;1.29;1.17;9.31;9.31;9.30;9.23;7.93;0.55
13413;SPS30;6778;48.136;11.386;2022-09-17T08:07:49;1.38;1.35;1.28;1.13;9.02;9.01;9.00;8.90;7.61;0.57
13413;SPS30;6778;48.136;11.386;2022-09-17T08:10:19;1.47;1.42;1.32;1.14;9.14;9.13;9.12;8.99;7.64;0.59
13413;SPS30;6778;48.136;11.386;2022-09-17T08:12:48;1.75;1.68;1.55;1.32;10.50;10.49;10.47;10.30;8.71;0.60
13413;SPS30;6778;48.136;11.386;2022-09-17T08:15:17;1.79;1.71;1.54;1.26;10.05;10.05;10.02;9.80;8.21;0.63
13413;SPS30;6778;48.136;11.386;2022-09-17T08:17:49;1.63;1.54;1.38;1.11;8.88;8.88;8.85;8.64;7.20;0.64
13413;SPS30;6778;48.136;11.386;2022-09-17T08:20:18;1.93;1.83;1.62;1.30;10.37;10.37;10.33;10.07;8.37;0.64
13413;SPS30;6778;48.136;11.386;2022-09-17T08:22:48;nan;nan;nan;nan;nan;nan;nan;nan;nan;nan
13413;SPS30;6778;48.136;11.386;2022-09-17T08:25:17;2.25;2.24;2.23;2.10;16.73;16.72;16.72;16.68;14.48;0.47
13413;SPS30;6778;48.136;11.386;2022-09-17T08:27:45;1.59;1.59;1.58;1.49;11.88;11.88;11.88;11.85;10.29;0.47
13413;SPS30;6778;48.136;11.386;2022-09-17T08:30:14;1.45;1.43;1.39;1.27;10.14;10.14;10.13;10.06;8.67;0.50
13413;SPS30;6778;48.136;11.386;2022-09-17T08:32:43;1.27;1.24;1.18;1.05;8.37;8.37;8.35;8.27;7.07;0.52
13413;SPS30;6778;48.136;11.386;2022-09-17T08:35:14;1.36;1.32;1.23;1.07;8.54;8.54;8.53;8.41;7.15;0.54
13413;SPS30;6778;48.136;11.386;2022-09-17T08:37:43;2.07;2.02;1.91;1.68;13.38;13.38;13.36;13.21;11.27;0.51
13413;SPS30;6778;48.136;11.386;2022-09-17T08:40:15;2.74;2.70;2.63;2.41;19.23;19.23;19.21;19.10;16.47;0.49
13413;SPS30;6778;48.136;11.386;2022-09-17T08:42:53;1.58;1.56;1.52;1.39;11.09;11.09;11.08;11.01;9.50;0.50
13413;SPS30;6778;48.136;11.386;2022-09-17T08:45:25;1.43;1.39;1.33;1.18;9.43;9.42;9.41;9.32;7.98;0.51
13413;SPS30;6778;48.136;11.386;2022-09-17T08:47:54;1.76;1.70;1.59;1.38;11.04;11.04;11.02;10.87;9.25;0.53
13413;SPS30;6778;48.136;11.386;2022-09-17T08:50:33;1.74;1.68;1.57;1.36;10.89;10.89;10.87;10.72;9.11;0.55
13413;SPS30;6778;48.136;11.386;2022-09-17T08:53:18;2.76;2.67;2.50;2.17;17.29;17.28;17.25;17.02;14.47;0.55
13413;SPS30;6778;48.136;11.386;2022-09-17T08:55:58;1.77;1.72;1.61;1.41;11.22;11.21;11.20;11.05;9.41;0.57
13413;SPS30;6778;48.136;11.386;2022-09-17T08:58:40;1.67;1.61;1.49;1.27;10.10;10.10;10.08;9.92;8.39;0.58
13413;SPS30;6778;48.136;11.386;2022-09-17T09:01:23;2.44;2.34;2.14;1.80;14.39;14.38;14.35;14.09;11.88;0.59
13413;SPS30;6778;48.136;11.386;2022-09-17T09:04:12;8.03;7.93;7.73;7.07;56.47;56.46;56.42;56.07;48.37;0.52
13413;SPS30;6778;48.136;11.386;2022-09-17T09:07:04;3.90;3.90;3.90;3.69;29.44;29.44;29.43;29.37;25.54;0.46
13413;SPS30;6778;48.136;11.386;2022-09-17T09:09:36;1.49;1.49;1.49;1.41;11.24;11.23;11.23;11.21;9.75;0.47
13413;SPS30;6778;48.136;11.386;2022-09-17T09:12:12;1.71;1.70;1.67;1.54;12.30;12.30;12.29;12.23;10.58;0.49
13413;SPS30;6778;48.136;11.386;2022-09-17T09:14:50;1.65;1.62;1.56;1.41;11.25;11.25;11.24;11.15;9.59;0.52
13413;SPS30;6778;48.136;11.386;2022-09-17T09:17:24;1.65;1.60;1.52;1.34;10.67;10.66;10.65;10.53;8.99;0.53
13413;SPS30;6778;48.136;11.386;2022-09-17T09:19:59;1.84;1.79;1.69;1.48;11.80;11.80;11.78;11.64;9.93;0.53
13413;SPS30;6778;48.136;11.386;2022-09-17T09:22:38;1.61;1.56;1.47;1.28;10.18;10.18;10.16;10.03;8.53;0.52
13413;SPS30;6778;48.136;11.386;2022-09-17T09:25:17;1.72;1.66;1.56;1.36;10.84;10.83;10.82;10.67;9.09;0.51
13413;SPS30;6778;48.136;11.386;2022-09-17T09:30:45;1.97;1.88;1.72;1.44;11.52;11.51;11.49;11.27;9.50;0.56
13413;SPS30;6778;48.136;11.386;2022-09-17T09:33:25;1.65;1.58;1.44;1.21;9.68;9.67;9.65;9.47;7.99;0.56
13413;SPS30;6778;48.136;11.386;2022-09-17T09:36:01;2.04;1.94;1.76;1.45;11.55;11.54;11.51;11.27;9.45;0.58
13413;SPS30;6778;48.136;11.386;2022-09-17T09:38:32;4.00;3.86;3.59;3.08;24.62;24.61;24.56;24.19;20.52;0.57
13413;SPS30;6778;48.136;11.386;2022-09-17T09:41:07;2.29;2.25;2.16;1.95;15.55;15.54;15.53;15.40;13.23;0.54